NCAR-RAP Real-Time Weather Data

Output produced by METARs form (19 June 2019  11:20 UTC)
found at http://weather.rap.ucar.edu/surface/
 
KILG 191100Z AUTO 10004KT 10SM SCT005 BKN009 OVC120 23/22 A2985 RMK AO2 T02280217
KILG 191051Z AUTO 13003KT 10SM SCT005 BKN046 BKN120 23/22 A2985 RMK AO2 SLP107 T02280217
KILG 190951Z AUTO 02004KT 10SM BKN030 BKN060 22/21 A2985 RMK AO2 RAE0855 SLP105 P0000 T02220211 $
KILG 190930Z AUTO 00000KT 10SM FEW016 SCT025 OVC032 22/22 A2985 RMK AO2 RAE0855 P0000 T02220217 $
KILG 190851Z AUTO 25003KT 10SM -RA FEW019 BKN028 OVC049 22/22 A2986 RMK AO2 RAB44 SLP109 P0001 60001 T02220217 58006 $
KILG 190751Z AUTO 22004KT 10SM SCT006 BKN045 BKN100 23/22 A2987 RMK AO2 SLP113 T02280217 PNO $
KILG 190749Z AUTO 22006KT 10SM SCT006 BKN045 BKN100 23/22 A2987 RMK AO2 PNO $
KILG 190651Z AUTO 22003KT 10SM OVC090 23/22 A2988 RMK AO2 SLP115 T02280217 PNO $
KILG 190551Z AUTO 25006KT 10SM BKN075 OVC100 23/21 A2989 RMK AO2 SLP119 T02330211 10267 20233 58005 PNO $
KILG 190451Z AUTO 26006KT 10SM FEW070 BKN090 23/21 A2989 RMK AO2 SLP120 T02330206 402940211 PNO $
KILG 190351Z AUTO 22006KT 10SM BKN065 24/21 A2990 RMK AO2 RAB29E47 SLP123 T02390206 PNO $
KILG 190251Z AUTO 22004KT 10SM BKN065 24/20 A2990 RMK AO2 RAE26 SLP123 T02440200 53009 PNO $
KILG 190151Z AUTO 27004KT 10SM RA SCT065 BKN080 25/20 A2989 RMK AO2 RAB35 SLP119 T02500200 PNO $
KILG 190051Z AUTO 26007KT 10SM FEW100 26/21 A2988 RMK AO2 RAE33 SLP116 T02560206 PNO $
KILG 182351Z 28009KT 10SM -RA FEW090 FEW110 27/19 A2987 RMK AO2 SLP115 60000 T02720194 10294 20267 53012 PNO $
KILG 182251Z 25010KT 10SM -RA FEW039 FEW055 28/21 A2985 RMK AO2 SLP106 P0000 T02780206
KILG 182151Z 24009KT 10SM -RA CLR 29/22 A2984 RMK AO2 RAE18B51 SLP102 P0000 T02890222
KILG 182051Z 23011G19KT 10SM -RA FEW026 29/23 A2984 RMK AO2 RAB09 SLP103 P0000 60000 T02890228 56017
KILG 181951Z 25006KT 10SM FEW044 SCT065 BKN080 27/22 A2986 RMK AO2 SLP108 T02720222
KILG 181851Z 22009KT 10SM BKN110 27/22 A2987 RMK AO2 SLP113 T02720222
KILG 181751Z 21007KT 10SM FEW019 27/23 A2989 RMK AO2 SLP120 T02720228 10283 20228 58012
KILG 181651Z 18005KT 10SM BKN018 BKN100 26/23 A2991 RMK AO2 SLP127 T02610228
KILG 181603Z 14008KT 10SM BKN016 BKN100 26/23 A2992 RMK AO2 T02610228
KILG 181551Z 15007KT 10SM BKN014 BKN100 26/23 A2993 RMK AO2 SLP132 T02610228
KILG 181548Z 15004KT 10SM SCT014 BKN100 26/23 A2992 RMK AO2
KILG 181520Z 14006KT 10SM BKN011 OVC110 25/22 A2993 RMK AO2 T02500222
KILG 181451Z 00000KT 10SM FEW010 SCT014 BKN110 24/22 A2993 RMK AO2 SLP133 T02440222 58006
KILG 181448Z VRB03KT 10SM SCT010 BKN120 24/22 A2993 RMK AO2
KILG 181429Z 14004KT 10SM OVC013 24/22 A2993 RMK AO2 T02440217